createdAt,value
2018-12-19T00:00:14.265Z,44.43
2018-12-19T00:02:46.544Z,43.07
2018-12-19T00:05:18.713Z,49.53
2018-12-19T00:07:50.862Z,49.53
2018-12-19T00:10:21.130Z,48.43
2018-12-19T00:12:51.270Z,43.40
2018-12-19T00:15:21.574Z,72.90
2018-12-19T00:17:53.807Z,49.20
2018-12-19T00:20:24.062Z,52.70
2018-12-19T00:22:54.273Z,51.00
2018-12-19T00:25:24.441Z,49.67
2018-12-19T00:27:56.835Z,49.00
2018-12-19T00:30:29.026Z,47.67
2018-12-19T00:33:01.195Z,62.73
2018-12-19T00:35:33.351Z,48.67
2018-12-19T00:38:03.561Z,48.73
2018-12-19T00:40:34.031Z,52.40
2018-12-19T00:43:04.256Z,47.63
2018-12-19T00:45:34.666Z,46.80
2018-12-19T00:48:04.953Z,50.10
2018-12-19T00:50:36.008Z,47.13
2018-12-19T00:53:07.762Z,49.53
2018-12-19T00:55:38.134Z,52.13
2018-12-19T00:58:08.348Z,43.10
2018-12-19T01:00:38.641Z,47.60
2018-12-19T01:03:08.865Z,46.07
2018-12-19T01:05:39.229Z,44.93
2018-12-19T01:08:09.489Z,44.67
2018-12-19T01:10:39.798Z,45.20
2018-12-19T01:13:10.009Z,49.87
2018-12-19T01:15:40.193Z,48.20
2018-12-19T01:18:10.358Z,39.80
2018-12-19T01:20:40.539Z,50.87
2018-12-19T01:23:10.678Z,47.80
2018-12-19T01:25:40.851Z,43.03
2018-12-19T01:28:11.028Z,44.47
2018-12-19T01:30:41.204Z,38.37
2018-12-19T01:33:12.420Z,47.50
2018-12-19T01:35:42.629Z,46.47
2018-12-19T01:38:12.992Z,46.40
2018-12-19T01:40:43.188Z,46.00
2018-12-19T01:43:13.471Z,42.43
2018-12-19T01:45:43.629Z,44.73
2018-12-19T01:48:13.834Z,41.30
2018-12-19T01:50:44.013Z,44.20
2018-12-19T01:53:14.188Z,47.80
2018-12-19T01:55:44.708Z,45.17
2018-12-19T01:58:14.890Z,47.63
2018-12-19T02:00:45.153Z,46.13
2018-12-19T02:03:15.379Z,43.57
2018-12-19T02:05:45.580Z,40.03
2018-12-19T02:08:15.921Z,43.80
2018-12-19T02:10:46.468Z,36.37
2018-12-19T02:13:16.676Z,45.60
2018-12-19T02:15:46.930Z,38.60
2018-12-19T02:18:17.124Z,34.77
2018-12-19T02:20:47.463Z,39.03
2018-12-19T02:23:17.752Z,39.90
2018-12-19T02:25:48.039Z,43.50
2018-12-19T02:28:18.517Z,41.87
2018-12-19T02:30:48.750Z,38.50
2018-12-19T02:33:18.972Z,39.40
2018-12-19T02:35:49.190Z,39.17
2018-12-19T02:38:19.433Z,37.13
2018-12-19T02:40:49.619Z,38.90
2018-12-19T02:43:20.961Z,40.13
2018-12-19T02:45:51.312Z,36.80
2018-12-19T02:48:21.473Z,42.60
2018-12-19T02:50:51.810Z,39.00
2018-12-19T02:53:22.042Z,40.80
2018-12-19T02:55:52.461Z,34.47
2018-12-19T02:58:22.605Z,40.17
2018-12-19T03:00:52.885Z,38.87
2018-12-19T03:03:23.106Z,32.37
2018-12-19T03:05:53.288Z,37.63
2018-12-19T03:08:23.471Z,39.13
2018-12-19T03:10:53.921Z,39.57
2018-12-19T03:13:24.325Z,39.20
2018-12-19T03:15:54.505Z,36.23
2018-12-19T03:18:24.763Z,38.13
2018-12-19T03:20:55.034Z,35.10
2018-12-19T03:23:25.221Z,43.57
2018-12-19T03:25:55.355Z,41.80
2018-12-19T03:28:25.802Z,40.03
2018-12-19T03:30:56.005Z,41.20
2018-12-19T03:33:28.306Z,39.43
2018-12-19T03:36:00.278Z,44.57
2018-12-19T03:38:30.633Z,43.80
2018-12-19T03:41:00.932Z,44.63
2018-12-19T03:43:31.096Z,42.70
2018-12-19T03:46:01.262Z,50.67
2018-12-19T03:48:36.787Z,46.47
2018-12-19T03:51:06.968Z,49.00
2018-12-19T03:53:37.119Z,49.73
2018-12-19T03:56:07.317Z,47.60
2018-12-19T03:58:37.476Z,53.53
2018-12-19T04:01:07.693Z,49.70
2018-12-19T04:03:37.917Z,49.40
2018-12-19T04:06:08.095Z,49.83
2018-12-19T04:08:39.445Z,49.40
2018-12-19T04:11:09.668Z,52.20
2018-12-19T04:13:39.962Z,49.47
2018-12-19T04:16:10.219Z,49.93
2018-12-19T04:18:40.413Z,49.37
2018-12-19T04:21:10.632Z,45.90
2018-12-19T04:23:40.772Z,46.70
2018-12-19T04:26:11.051Z,49.73
2018-12-19T04:28:41.201Z,48.13
2018-12-19T04:31:11.382Z,44.40
2018-12-19T04:33:41.531Z,41.67
2018-12-19T04:36:11.824Z,43.43
2018-12-19T04:38:42.298Z,38.27
2018-12-19T04:41:12.546Z,45.60
2018-12-19T04:43:42.814Z,57.33
2018-12-19T04:46:13.059Z,44.10
2018-12-19T04:48:43.247Z,39.83
2018-12-19T04:51:13.470Z,35.87
2018-12-19T04:53:43.716Z,38.83
2018-12-19T04:56:14.056Z,37.07
2018-12-19T04:58:44.346Z,37.80
2018-12-19T05:01:14.650Z,36.93
2018-12-19T05:03:44.897Z,36.57
2018-12-19T05:06:15.221Z,37.97
2018-12-19T05:08:45.533Z,37.43
2018-12-19T05:11:15.784Z,36.87
2018-12-19T05:13:45.972Z,34.90
2018-12-19T05:16:16.298Z,30.40
2018-12-19T05:18:46.529Z,37.83
2018-12-19T05:21:16.771Z,36.33
2018-12-19T05:23:46.973Z,28.17
2018-12-19T05:26:17.201Z,29.67
2018-12-19T05:28:47.415Z,28.87
2018-12-19T05:31:17.638Z,36.77
2018-12-19T05:33:47.897Z,35.17
2018-12-19T05:36:18.353Z,27.77
2018-12-19T05:38:48.589Z,30.37
2018-12-19T05:41:18.760Z,34.30
2018-12-19T05:43:48.987Z,39.53
2018-12-19T05:46:19.323Z,37.77
2018-12-19T05:48:49.484Z,34.23
2018-12-19T05:51:19.682Z,29.70
2018-12-19T05:53:49.893Z,32.10
2018-12-19T05:56:20.170Z,29.00
2018-12-19T05:58:50.545Z,24.73
2018-12-19T06:01:20.705Z,23.80
2018-12-19T06:03:52.874Z,24.20
2018-12-19T06:06:23.048Z,28.90
2018-12-19T06:08:53.282Z,29.87
2018-12-19T06:11:23.493Z,30.80
2018-12-19T06:13:53.787Z,29.53
2018-12-19T06:16:24.230Z,30.00
2018-12-19T06:18:54.480Z,33.47
2018-12-19T06:21:24.679Z,28.90
2018-12-19T06:23:55.414Z,31.03
2018-12-19T06:26:27.440Z,28.03
2018-12-19T06:28:59.122Z,26.90
2018-12-19T06:31:29.443Z,24.47
2018-12-19T06:34:00.151Z,26.03
2018-12-19T06:36:30.490Z,31.40
2018-12-19T06:39:00.625Z,27.20
2018-12-19T06:41:32.795Z,29.30
2018-12-19T06:44:02.977Z,39.83
2018-12-19T06:46:34.737Z,34.90
2018-12-19T06:49:05.094Z,30.10
2018-12-19T06:51:35.430Z,24.00
2018-12-19T06:54:05.791Z,24.03
2018-12-19T06:56:36.270Z,29.47
2018-12-19T06:59:06.523Z,26.53
2018-12-19T07:01:36.790Z,23.40
2018-12-19T07:04:06.959Z,25.10
2018-12-19T07:06:37.148Z,23.73
2018-12-19T07:09:09.260Z,25.47
2018-12-19T07:11:39.467Z,32.97
2018-12-19T07:14:09.735Z,27.90
2018-12-19T07:16:43.490Z,26.20
2018-12-19T07:19:12.191Z,33.23
2018-12-19T07:21:42.413Z,22.00
2018-12-19T07:24:12.729Z,26.53
2018-12-19T07:26:42.893Z,23.23
2018-12-19T07:29:13.106Z,23.23
2018-12-19T07:31:43.351Z,22.87
2018-12-19T07:34:13.634Z,20.77
2018-12-19T07:36:43.789Z,20.90
2018-12-19T07:39:13.967Z,24.93
2018-12-19T07:41:44.163Z,27.10
2018-12-19T07:44:14.540Z,26.17
2018-12-19T07:46:44.693Z,20.50
2018-12-19T07:49:14.979Z,23.93
2018-12-19T07:51:45.227Z,22.93
2018-12-19T07:54:15.508Z,16.57
2018-12-19T07:56:45.939Z,16.07
2018-12-19T07:59:16.455Z,13.77
2018-12-19T08:01:46.686Z,15.07
2018-12-19T08:04:17.477Z,11.37
2018-12-19T08:06:47.674Z,15.40
2018-12-19T08:09:17.959Z,12.53
2018-12-19T08:11:48.151Z,12.77
2018-12-19T08:14:18.399Z,17.33
2018-12-19T08:16:48.622Z,10.83
2018-12-19T08:19:18.861Z,13.83
2018-12-19T08:21:49.046Z,15.77
2018-12-19T08:24:19.203Z,17.20
2018-12-19T08:26:49.448Z,14.00
2018-12-19T08:29:19.701Z,12.93
2018-12-19T08:31:50.375Z,16.53
2018-12-19T08:34:20.639Z,15.10
2018-12-19T08:36:50.990Z,14.60
2018-12-19T08:39:21.646Z,15.87
2018-12-19T08:41:52.257Z,20.10
2018-12-19T08:44:22.453Z,20.03
2018-12-19T08:46:52.725Z,19.70
2018-12-19T08:49:22.948Z,24.43
2018-12-19T08:51:53.218Z,23.63
2018-12-19T08:54:23.503Z,18.73
2018-12-19T08:56:53.713Z,22.83
2018-12-19T08:59:23.908Z,21.80
2018-12-19T09:01:54.120Z,21.93
2018-12-19T09:04:25.862Z,19.90
2018-12-19T09:06:56.326Z,20.50
2018-12-19T09:09:26.567Z,24.37
2018-12-19T09:11:56.754Z,19.60
2018-12-19T09:14:27.268Z,28.70
2018-12-19T09:16:57.416Z,19.30
2018-12-19T09:19:27.622Z,18.80
2018-12-19T09:21:58.113Z,20.60
2018-12-19T09:24:28.358Z,22.43
2018-12-19T09:26:58.550Z,21.50
2018-12-19T09:29:28.815Z,20.80
2018-12-19T09:31:58.978Z,19.40
2018-12-19T09:34:29.207Z,26.60
2018-12-19T09:36:59.508Z,20.10
2018-12-19T09:39:29.650Z,18.97
2018-12-19T09:41:59.900Z,15.60
2018-12-19T09:44:30.124Z,20.57
2018-12-19T09:47:00.615Z,29.50
2018-12-19T09:49:30.849Z,20.90
2018-12-19T09:52:01.162Z,26.50
2018-12-19T09:54:31.442Z,18.53
2018-12-19T09:57:01.755Z,18.20
2018-12-19T09:59:31.959Z,52.43
2018-12-19T10:02:02.391Z,43.87
2018-12-19T10:04:32.578Z,23.57
2018-12-19T10:07:02.727Z,24.40
2018-12-19T10:09:32.954Z,18.90
2018-12-19T10:12:03.129Z,17.47
2018-12-19T10:14:34.989Z,18.13
2018-12-19T10:17:05.430Z,20.93
2018-12-19T10:19:35.750Z,19.20
2018-12-19T10:22:06.055Z,15.70
2018-12-19T10:24:41.503Z,17.40
2018-12-19T10:27:13.703Z,18.03
2018-12-19T10:29:43.995Z,20.33
2018-12-19T10:32:14.222Z,17.53
2018-12-19T10:34:44.500Z,11.97
2018-12-19T10:37:14.680Z,23.17
2018-12-19T10:39:44.975Z,13.33
2018-12-19T10:42:15.276Z,42.77
2018-12-19T10:44:45.435Z,19.40
2018-12-19T10:47:15.602Z,11.27
2018-12-19T10:49:45.806Z,18.50
2018-12-19T10:52:15.965Z,15.40
2018-12-19T10:54:46.165Z,18.80
2018-12-19T10:57:16.352Z,20.47
2018-12-19T10:59:46.641Z,12.80
2018-12-19T11:02:16.815Z,15.00
2018-12-19T11:04:47.018Z,9.03
2018-12-19T11:07:17.368Z,12.03
2018-12-19T11:09:47.585Z,12.87
2018-12-19T11:12:17.807Z,13.47
2018-12-19T11:14:48.009Z,11.50
2018-12-19T11:17:18.186Z,24.47
2018-12-19T11:19:48.372Z,14.40
2018-12-19T11:22:18.531Z,11.73
2018-12-19T11:24:48.700Z,12.73
2018-12-19T11:27:18.933Z,24.73
2018-12-19T11:29:49.115Z,22.30
2018-12-19T11:32:19.304Z,18.30
2018-12-19T11:34:49.545Z,23.73
2018-12-19T11:37:19.767Z,39.20
2018-12-19T11:39:49.933Z,37.07
2018-12-19T11:42:20.179Z,32.43
2018-12-19T11:44:50.368Z,25.70
2018-12-19T11:47:20.694Z,17.23
2018-12-19T11:49:50.907Z,15.53
2018-12-19T11:52:21.110Z,12.10
2018-12-19T11:54:51.333Z,11.93
2018-12-19T11:57:21.677Z,14.03
2018-12-19T11:59:52.090Z,16.60
2018-12-19T12:02:22.308Z,11.50
2018-12-19T12:04:52.532Z,10.37
2018-12-19T12:07:24.864Z,8.77
2018-12-19T12:09:55.905Z,19.43
2018-12-19T12:12:26.101Z,17.13
2018-12-19T12:14:56.254Z,17.70
2018-12-19T12:17:26.446Z,17.30
2018-12-19T12:19:56.626Z,20.87
2018-12-19T12:22:26.894Z,18.90
2018-12-19T12:24:57.085Z,19.00
2018-12-19T12:27:27.387Z,20.80
2018-12-19T12:29:57.623Z,20.70
2018-12-19T12:32:27.847Z,19.93
2018-12-19T12:34:58.086Z,15.57
2018-12-19T12:37:28.269Z,16.80
2018-12-19T12:39:58.589Z,18.27
2018-12-19T12:42:28.823Z,13.67
2018-12-19T12:44:59.059Z,25.93
2018-12-19T12:47:29.220Z,21.23
2018-12-19T12:49:59.464Z,18.60
2018-12-19T12:52:29.729Z,22.70
2018-12-19T12:54:59.950Z,21.13
2018-12-19T12:57:30.139Z,22.50
2018-12-19T13:00:00.404Z,69.87
2018-12-19T13:02:30.661Z,69.50
2018-12-19T13:05:02.455Z,57.50
2018-12-19T13:07:32.835Z,33.33
2018-12-19T13:10:03.031Z,39.77
2018-12-19T13:12:33.302Z,28.30
2018-12-19T13:15:03.527Z,25.77
2018-12-19T13:17:33.849Z,23.50
2018-12-19T13:20:04.902Z,28.40
2018-12-19T13:22:35.184Z,24.37
2018-12-19T13:25:05.942Z,25.30
2018-12-19T13:27:36.218Z,24.73
2018-12-19T13:30:08.845Z,24.30
2018-12-19T13:32:39.094Z,29.30
2018-12-19T13:35:10.429Z,24.67
2018-12-19T13:37:40.687Z,30.00
2018-12-19T13:40:11.269Z,29.73
2018-12-19T13:42:41.570Z,48.60
2018-12-19T13:45:11.752Z,25.63
2018-12-19T13:47:41.946Z,29.70
2018-12-19T13:50:12.131Z,22.50
2018-12-19T13:52:42.730Z,35.30
2018-12-19T13:55:12.902Z,22.93
2018-12-19T13:57:43.268Z,19.13
2018-12-19T14:00:13.474Z,15.73
2018-12-19T14:02:43.790Z,24.27
2018-12-19T14:05:14.170Z,18.37
2018-12-19T14:07:44.445Z,19.20
2018-12-19T14:10:14.766Z,24.00
2018-12-19T14:12:44.946Z,23.27
2018-12-19T14:15:15.122Z,17.70
2018-12-19T14:17:45.339Z,19.47
2018-12-19T14:20:15.514Z,14.40
2018-12-19T14:22:45.964Z,16.50
2018-12-19T14:25:16.190Z,16.40
2018-12-19T14:27:46.363Z,17.33
2018-12-19T14:30:16.512Z,20.40
2018-12-19T14:32:46.721Z,17.30
2018-12-19T14:35:18.050Z,30.43
2018-12-19T14:37:48.205Z,13.20
2018-12-19T14:40:18.756Z,21.77
2018-12-19T14:42:48.981Z,19.30
2018-12-19T14:45:19.342Z,15.40
2018-12-19T14:47:49.754Z,20.87
2018-12-19T14:50:19.926Z,20.70
2018-12-19T14:52:50.178Z,22.27
2018-12-19T14:55:20.318Z,20.10
2018-12-19T14:57:50.515Z,19.50
2018-12-19T15:00:21.823Z,22.97
2018-12-19T15:02:52.426Z,17.03
2018-12-19T15:05:22.883Z,20.43
2018-12-19T15:07:53.224Z,17.77
2018-12-19T15:10:23.450Z,16.67
2018-12-19T15:12:53.796Z,25.87
2018-12-19T15:15:24.078Z,21.73
2018-12-19T15:17:54.417Z,17.93
2018-12-19T15:20:24.840Z,16.60
2018-12-19T15:22:55.355Z,20.80
2018-12-19T15:25:25.872Z,27.20
2018-12-19T15:27:56.136Z,17.67
2018-12-19T15:30:26.542Z,21.47
2018-12-19T15:32:58.027Z,17.53
2018-12-19T15:35:28.344Z,20.30
2018-12-19T15:37:58.557Z,17.83
2018-12-19T15:40:29.376Z,21.07
2018-12-19T15:42:59.554Z,27.23
2018-12-19T15:45:29.758Z,23.30
2018-12-19T15:47:59.918Z,20.60
2018-12-19T15:50:30.096Z,26.50
2018-12-19T15:53:00.410Z,19.50
2018-12-19T15:55:30.676Z,19.97
2018-12-19T15:58:01.024Z,29.60
2018-12-19T16:00:31.262Z,24.80
2018-12-19T16:03:01.624Z,27.43
2018-12-19T16:05:31.992Z,25.40
2018-12-19T16:08:02.257Z,21.00
2018-12-19T16:10:32.523Z,14.43
2018-12-19T16:13:02.740Z,13.70
2018-12-19T16:15:32.950Z,16.80
2018-12-19T16:18:03.220Z,17.80
2018-12-19T16:20:33.482Z,17.00
2018-12-19T16:23:03.675Z,19.90
2018-12-19T16:25:33.824Z,15.33
2018-12-19T16:28:04.151Z,17.00
2018-12-19T16:30:35.375Z,17.20
2018-12-19T16:33:05.649Z,15.83
2018-12-19T16:35:35.826Z,20.37
2018-12-19T16:38:06.722Z,16.77
2018-12-19T16:40:37.020Z,21.40
2018-12-19T16:43:07.236Z,16.23
2018-12-19T16:45:37.542Z,16.20
2018-12-19T16:48:09.392Z,22.13
2018-12-19T16:50:39.648Z,23.60
2018-12-19T16:53:09.831Z,21.20
2018-12-19T16:55:40.014Z,15.40
2018-12-19T16:58:10.319Z,20.90
2018-12-19T17:00:40.609Z,17.47
2018-12-19T17:03:10.777Z,22.60
2018-12-19T17:05:41.182Z,29.20
2018-12-19T17:08:11.342Z,22.70
2018-12-19T17:10:41.598Z,24.63
2018-12-19T17:13:11.848Z,24.70
2018-12-19T17:15:42.152Z,25.43
2018-12-19T17:18:12.496Z,28.10
2018-12-19T17:20:42.754Z,32.03
2018-12-19T17:23:12.949Z,28.03
2018-12-19T17:25:43.242Z,32.77
2018-12-19T17:28:13.500Z,34.57
2018-12-19T17:30:43.640Z,35.27
2018-12-19T17:33:14.020Z,32.20
2018-12-19T17:35:44.170Z,32.83
2018-12-19T17:38:14.463Z,32.17
2018-12-19T17:40:44.830Z,34.80
2018-12-19T17:43:15.281Z,27.70
2018-12-19T17:45:45.455Z,27.10
2018-12-19T17:48:25.335Z,30.00
2018-12-19T17:51:02.989Z,31.80
2018-12-19T17:53:46.564Z,29.50
2018-12-19T17:56:17.621Z,34.07
2018-12-19T17:58:48.000Z,36.63
2018-12-19T18:01:18.459Z,21.80
2018-12-19T18:03:49.655Z,17.37
2018-12-19T18:06:20.603Z,20.60
2018-12-19T18:08:50.816Z,21.83
2018-12-19T18:11:21.033Z,21.63
2018-12-19T18:13:51.510Z,20.20
2018-12-19T18:16:21.697Z,24.10
2018-12-19T18:18:51.886Z,21.00
2018-12-19T18:21:22.033Z,22.67
2018-12-19T18:23:52.229Z,22.63
2018-12-19T18:26:22.587Z,18.43
2018-12-19T18:28:52.903Z,24.47
2018-12-19T18:31:23.156Z,22.90
2018-12-19T18:33:54.032Z,21.83
2018-12-19T18:36:24.265Z,19.87
2018-12-19T18:38:54.589Z,24.00
2018-12-19T18:41:24.698Z,21.00
2018-12-19T18:43:56.052Z,22.73
2018-12-19T18:46:26.381Z,18.10
2018-12-19T18:48:56.708Z,22.37
2018-12-19T18:51:26.892Z,25.33
2018-12-19T18:53:57.031Z,19.67
2018-12-19T18:56:27.444Z,25.97
2018-12-19T18:58:57.760Z,33.17
2018-12-19T19:01:27.997Z,30.33
2018-12-19T19:03:58.383Z,31.50
2018-12-19T19:06:28.635Z,25.97
2018-12-19T19:08:58.841Z,19.60
2018-12-19T19:11:29.020Z,23.53
2018-12-19T19:13:59.189Z,27.77
2018-12-19T19:16:29.719Z,24.27
2018-12-19T19:19:00.067Z,21.10
2018-12-19T19:21:30.173Z,24.70
2018-12-19T19:24:00.508Z,22.23
2018-12-19T19:26:31.068Z,21.30
2018-12-19T19:29:02.693Z,19.17
2018-12-19T19:31:33.038Z,18.67
2018-12-19T19:34:03.385Z,15.27
2018-12-19T19:36:33.559Z,29.57
2018-12-19T19:39:03.954Z,14.67
2018-12-19T19:41:36.281Z,17.67
2018-12-19T19:44:06.619Z,18.53
2018-12-19T19:46:36.905Z,20.97
2018-12-19T19:49:07.124Z,21.70
2018-12-19T19:51:37.412Z,27.10
2018-12-19T19:54:07.670Z,25.90
2018-12-19T19:56:37.823Z,24.33
2018-12-19T19:59:08.123Z,19.93
2018-12-19T20:01:38.462Z,29.00
2018-12-19T20:04:08.756Z,24.70
2018-12-19T20:06:39.163Z,27.60
2018-12-19T20:09:10.124Z,29.63
2018-12-19T20:11:41.570Z,24.37
2018-12-19T20:14:11.827Z,25.13
2018-12-19T20:16:47.117Z,18.73
2018-12-19T20:19:17.332Z,30.23
2018-12-19T20:21:47.610Z,22.83
2018-12-19T20:24:18.891Z,27.23
2018-12-19T20:26:49.111Z,18.97
2018-12-19T20:29:19.450Z,21.60
2018-12-19T20:31:49.899Z,20.90
2018-12-19T20:34:20.086Z,20.37
2018-12-19T20:36:50.278Z,23.20
2018-12-19T20:39:20.476Z,28.43
2018-12-19T20:41:51.322Z,26.03
2018-12-19T20:44:21.585Z,22.43
2018-12-19T20:46:51.892Z,18.80
2018-12-19T20:49:22.051Z,20.20
2018-12-19T20:51:52.885Z,20.93
2018-12-19T20:54:23.173Z,25.83
2018-12-19T20:56:53.480Z,24.33
2018-12-19T20:59:23.798Z,31.60
2018-12-19T21:01:54.000Z,26.60
2018-12-19T21:04:24.286Z,22.17
2018-12-19T21:06:54.568Z,23.17
2018-12-19T21:09:24.744Z,30.80
2018-12-19T21:11:54.913Z,24.73
2018-12-19T21:14:25.127Z,23.93
2018-12-19T21:17:00.642Z,24.20
2018-12-19T21:19:30.859Z,23.63
2018-12-19T21:22:01.153Z,24.27
2018-12-19T21:24:31.482Z,23.43
2018-12-19T21:27:01.653Z,22.87
2018-12-19T21:29:31.970Z,22.60
2018-12-19T21:32:02.191Z,22.50
2018-12-19T21:34:32.579Z,25.13
2018-12-19T21:37:02.875Z,19.97
2018-12-19T21:39:33.273Z,24.50
2018-12-19T21:42:03.467Z,26.90
2018-12-19T21:44:33.786Z,23.73
2018-12-19T21:47:04.075Z,26.67
2018-12-19T21:49:34.475Z,29.07
2018-12-19T21:52:04.660Z,28.77
2018-12-19T21:54:35.089Z,23.87
2018-12-19T21:57:05.264Z,27.50
2018-12-19T21:59:35.544Z,30.97
2018-12-19T22:02:06.886Z,28.83
2018-12-19T22:04:37.261Z,28.77
2018-12-19T22:07:07.517Z,27.60
2018-12-19T22:09:37.896Z,32.30
2018-12-19T22:12:08.042Z,31.53
2018-12-19T22:14:38.206Z,28.47
2018-12-19T22:17:13.477Z,26.73
2018-12-19T22:19:43.633Z,30.60
2018-12-19T22:22:15.229Z,36.57
2018-12-19T22:24:45.500Z,25.87
2018-12-19T22:27:15.691Z,34.07
2018-12-19T22:29:45.875Z,26.33
2018-12-19T22:32:16.046Z,24.30
2018-12-19T22:34:46.318Z,25.83
2018-12-19T22:37:16.522Z,24.63
2018-12-19T22:39:46.756Z,22.23
2018-12-19T22:42:17.030Z,28.63
2018-12-19T22:44:47.436Z,21.47
2018-12-19T22:47:24.561Z,25.37
2018-12-19T22:49:54.785Z,25.87
2018-12-19T22:52:25.098Z,30.13
2018-12-19T22:54:55.432Z,30.10
2018-12-19T22:57:25.698Z,35.50
2018-12-19T22:59:56.009Z,30.63
2018-12-19T23:02:31.580Z,31.97
2018-12-19T23:05:01.761Z,33.93
2018-12-19T23:07:32.373Z,30.80
2018-12-19T23:10:02.687Z,29.03
2018-12-19T23:12:34.227Z,28.77
2018-12-19T23:15:04.590Z,29.90
2018-12-19T23:17:40.637Z,24.53
2018-12-19T23:20:16.775Z,27.77
2018-12-19T23:22:52.455Z,23.70
2018-12-19T23:25:28.047Z,22.30
2018-12-19T23:28:00.207Z,23.80
2018-12-19T23:30:30.669Z,23.37
2018-12-19T23:33:00.983Z,25.13
2018-12-19T23:35:31.158Z,23.80
2018-12-19T23:38:01.712Z,31.73
2018-12-19T23:40:38.652Z,30.57
2018-12-19T23:43:09.051Z,28.73
2018-12-19T23:45:39.305Z,31.67
2018-12-19T23:48:09.549Z,26.30
2018-12-19T23:50:39.804Z,27.40
2018-12-19T23:53:10.195Z,28.73
2018-12-19T23:55:40.490Z,25.77
2018-12-19T23:58:10.667Z,29.20
